createdAt,value
2023-04-26T00:00:11.852Z,21.17
2023-04-26T00:02:59.650Z,19.40
2023-04-26T00:05:34.950Z,19.65
2023-04-26T00:08:21.553Z,20.73
2023-04-26T00:10:54.621Z,19.35
2023-04-26T00:13:41.536Z,19.52
2023-04-26T00:16:15.002Z,20.65
2023-04-26T00:19:01.546Z,19.85
2023-04-26T00:21:41.527Z,20.63
2023-04-26T00:24:35.567Z,21.38
2023-04-26T00:27:22.567Z,19.92
2023-04-26T00:29:55.913Z,21.60
2023-04-26T00:32:43.584Z,20.00
2023-04-26T00:35:16.630Z,19.92
2023-04-26T00:38:03.558Z,19.60
2023-04-26T00:40:37.682Z,20.80
2023-04-26T00:43:24.529Z,20.00
2023-04-26T00:45:58.702Z,17.77
2023-04-26T00:48:45.541Z,18.83
2023-04-26T00:51:19.649Z,20.67
2023-04-26T00:54:06.568Z,18.63
2023-04-26T00:56:40.821Z,18.02
2023-04-26T00:59:27.566Z,18.45
2023-04-26T01:02:00.813Z,18.63
2023-04-26T01:04:48.577Z,17.55
2023-04-26T01:07:40.670Z,18.50
2023-04-26T01:10:27.575Z,18.50
2023-04-26T01:13:01.681Z,15.05
2023-04-26T01:15:58.568Z,17.33
2023-04-26T01:18:38.564Z,16.83
2023-04-26T01:21:39.575Z,17.90
2023-04-26T01:24:33.569Z,18.23
2023-04-26T01:27:20.564Z,18.05
2023-04-26T01:29:54.072Z,16.92
2023-04-26T01:32:41.591Z,15.57
2023-04-26T01:35:15.671Z,17.65
2023-04-26T01:38:02.562Z,17.35
2023-04-26T01:40:36.303Z,17.42
2023-04-26T01:43:24.576Z,16.27
2023-04-26T01:46:04.685Z,16.45
2023-04-26T01:48:51.770Z,17.20
2023-04-26T01:51:24.749Z,16.85
2023-04-26T01:54:11.550Z,18.50
2023-04-26T01:56:44.744Z,19.52
2023-04-26T01:59:31.587Z,19.17
2023-04-26T02:02:11.682Z,19.42
2023-04-26T02:04:58.604Z,19.08
2023-04-26T02:07:31.660Z,17.75
2023-04-26T02:10:18.582Z,18.23
2023-04-26T02:12:58.578Z,17.85
2023-04-26T02:15:52.612Z,17.70
2023-04-26T02:18:39.595Z,17.40
2023-04-26T02:21:14.668Z,17.92
2023-04-26T02:24:01.604Z,15.68
2023-04-26T02:26:34.701Z,17.30
2023-04-26T02:29:35.947Z,17.80
2023-04-26T02:32:20.624Z,17.00
2023-04-26T02:35:14.611Z,17.88
2023-04-26T02:38:01.592Z,16.45
2023-04-26T02:40:41.601Z,17.00
2023-04-26T02:43:28.600Z,17.13
2023-04-26T02:46:08.616Z,16.35
2023-04-26T02:48:55.614Z,16.50
2023-04-26T02:51:28.698Z,16.35
2023-04-26T02:54:15.586Z,16.40
2023-04-26T02:56:48.696Z,15.77
2023-04-26T02:59:35.609Z,16.48
2023-04-26T03:02:08.781Z,15.43
2023-04-26T03:04:55.585Z,15.52
2023-04-26T03:07:35.599Z,15.27
2023-04-26T03:10:22.600Z,16.48
2023-04-26T03:13:02.599Z,16.98
2023-04-26T03:15:53.596Z,15.75
2023-04-26T03:18:33.732Z,16.40
2023-04-26T03:21:27.599Z,15.70
2023-04-26T03:24:14.611Z,15.43
2023-04-26T03:26:47.711Z,15.70
2023-04-26T03:29:34.620Z,16.10
2023-04-26T03:32:14.673Z,15.32
2023-04-26T03:35:01.625Z,15.43
2023-04-26T03:37:41.613Z,15.45
2023-04-26T03:40:35.586Z,15.68
2023-04-26T03:43:31.945Z,15.25
2023-04-26T03:46:18.651Z,14.60
2023-04-26T03:48:52.092Z,14.35
2023-04-26T03:51:38.628Z,14.13
2023-04-26T03:54:18.626Z,13.98
2023-04-26T03:57:05.615Z,14.20
2023-04-26T03:59:45.638Z,13.00
2023-04-26T04:02:39.733Z,13.27
2023-04-26T04:05:26.659Z,13.38
2023-04-26T04:07:59.722Z,13.50
2023-04-26T04:10:46.615Z,12.48
2023-04-26T04:13:19.744Z,10.90
2023-04-26T04:16:06.650Z,13.02
2023-04-26T04:18:39.744Z,12.95
2023-04-26T04:21:26.617Z,12.90
2023-04-26T04:23:59.778Z,11.40
2023-04-26T04:26:46.657Z,12.07
2023-04-26T04:29:27.678Z,12.30
2023-04-26T04:32:14.643Z,11.38
2023-04-26T04:34:54.617Z,10.45
2023-04-26T04:37:41.647Z,11.25
2023-04-26T04:40:22.656Z,10.73
2023-04-26T04:43:16.635Z,10.50
2023-04-26T04:46:12.485Z,11.07
2023-04-26T04:48:59.646Z,12.05
2023-04-26T04:51:32.743Z,11.95
2023-04-26T04:54:21.640Z,12.23
2023-04-26T04:57:01.636Z,11.80
2023-04-26T04:59:55.646Z,11.95
2023-04-26T05:02:50.763Z,12.70
2023-04-26T05:05:44.672Z,12.43
2023-04-26T05:08:31.632Z,12.70
2023-04-26T05:11:04.867Z,12.27
2023-04-26T05:13:52.962Z,14.25
2023-04-26T05:16:26.762Z,12.30
2023-04-26T05:19:13.653Z,11.38
2023-04-26T05:21:46.802Z,11.63
2023-04-26T05:24:36.684Z,11.85
2023-04-26T05:27:09.747Z,12.07
2023-04-26T05:29:56.653Z,11.95
2023-04-26T05:32:30.171Z,12.98
2023-04-26T05:35:16.668Z,12.07
2023-04-26T05:37:49.769Z,12.40
2023-04-26T05:40:36.682Z,12.80
2023-04-26T05:43:17.655Z,12.15
2023-04-26T05:46:04.706Z,11.68
2023-04-26T05:48:37.766Z,14.23
2023-04-26T05:51:24.670Z,14.88
2023-04-26T05:54:04.673Z,14.48
2023-04-26T05:56:51.676Z,12.27
2023-04-26T05:59:24.781Z,13.40
2023-04-26T06:02:11.832Z,14.35
2023-04-26T06:04:45.026Z,13.40
2023-04-26T06:07:31.670Z,13.13
2023-04-26T06:10:05.244Z,12.88
2023-04-26T06:12:51.672Z,13.30
2023-04-26T06:15:24.785Z,14.43
2023-04-26T06:18:12.796Z,14.40
2023-04-26T06:20:45.813Z,13.68
2023-04-26T06:23:32.690Z,15.23
2023-04-26T06:26:12.686Z,12.93
2023-04-26T06:29:06.653Z,12.85
2023-04-26T06:31:53.669Z,12.50
2023-04-26T06:34:27.202Z,14.55
2023-04-26T06:37:13.727Z,12.90
2023-04-26T06:39:46.771Z,11.90
2023-04-26T06:42:33.686Z,12.07
2023-04-26T06:45:13.695Z,11.32
2023-04-26T06:48:07.754Z,12.15
2023-04-26T06:50:54.684Z,11.68
2023-04-26T06:53:27.778Z,12.18
2023-04-26T06:56:14.827Z,12.50
2023-04-26T06:59:05.822Z,12.43
2023-04-26T07:01:52.740Z,12.27
2023-04-26T07:04:25.938Z,11.50
2023-04-26T07:07:13.625Z,11.82
2023-04-26T07:09:53.721Z,10.60
2023-04-26T07:12:47.707Z,10.73
2023-04-26T07:15:34.723Z,9.77
2023-04-26T07:18:08.111Z,10.27
2023-04-26T07:20:54.701Z,13.20
2023-04-26T07:23:27.802Z,11.85
2023-04-26T07:26:17.704Z,10.57
2023-04-26T07:28:50.805Z,11.77
2023-04-26T07:31:38.717Z,12.38
2023-04-26T07:34:11.858Z,10.75
2023-04-26T07:36:58.734Z,11.93
2023-04-26T07:39:38.709Z,11.13
2023-04-26T07:42:32.724Z,11.15
2023-04-26T07:45:26.755Z,9.73
2023-04-26T07:48:13.788Z,10.48
2023-04-26T07:50:46.817Z,11.07
2023-04-26T07:53:33.690Z,10.80
2023-04-26T07:56:09.865Z,11.68
2023-04-26T07:58:56.733Z,11.90
2023-04-26T08:01:36.722Z,12.18
2023-04-26T08:04:31.862Z,11.60
2023-04-26T08:07:18.743Z,13.63
2023-04-26T08:09:51.975Z,14.10
2023-04-26T08:12:39.744Z,12.93
2023-04-26T08:15:13.937Z,13.43
2023-04-26T08:18:00.732Z,11.43
2023-04-26T08:20:33.917Z,11.02
2023-04-26T08:23:20.740Z,12.60
2023-04-26T08:26:00.755Z,12.40
2023-04-26T08:28:47.733Z,10.07
2023-04-26T08:31:22.987Z,10.48
2023-04-26T08:34:09.793Z,11.52
2023-04-26T08:36:43.845Z,11.80
2023-04-26T08:39:30.761Z,11.48
2023-04-26T08:42:17.741Z,12.07
2023-04-26T08:45:14.738Z,11.88
2023-04-26T08:48:10.813Z,12.30
2023-04-26T08:50:46.722Z,12.00
2023-04-26T08:53:34.754Z,12.30
2023-04-26T08:56:08.840Z,11.73
2023-04-26T08:58:55.745Z,13.25
2023-04-26T09:01:38.729Z,10.95
2023-04-26T09:04:25.877Z,13.07
2023-04-26T09:06:59.848Z,10.90
2023-04-26T09:09:53.753Z,10.48
2023-04-26T09:12:27.198Z,10.85
2023-04-26T09:15:14.767Z,10.90
2023-04-26T09:17:55.853Z,11.13
2023-04-26T09:20:42.762Z,11.90
2023-04-26T09:23:17.274Z,11.43
2023-04-26T09:26:03.790Z,10.98
2023-04-26T09:28:37.447Z,10.07
2023-04-26T09:31:47.029Z,10.88
2023-04-26T09:34:21.863Z,10.18
2023-04-26T09:37:08.766Z,10.20
2023-04-26T09:39:45.458Z,11.15
2023-04-26T09:42:31.764Z,10.70
2023-04-26T09:45:19.784Z,9.20
2023-04-26T09:48:37.781Z,10.80
2023-04-26T09:51:24.845Z,11.32
2023-04-26T09:54:04.776Z,10.35
2023-04-26T09:57:12.756Z,10.30
2023-04-26T10:00:01.831Z,11.27
2023-04-26T10:02:34.896Z,11.32
2023-04-26T10:05:21.771Z,11.60
2023-04-26T10:07:57.081Z,11.10
2023-04-26T10:10:44.812Z,12.32
2023-04-26T10:13:24.778Z,10.07
2023-04-26T10:16:12.808Z,11.52
2023-04-26T10:18:52.916Z,11.63
2023-04-26T10:21:45.784Z,10.60
2023-04-26T10:24:18.880Z,10.93
2023-04-26T10:27:05.778Z,11.02
2023-04-26T10:30:01.008Z,10.82
2023-04-26T10:32:59.848Z,10.10
2023-04-26T10:35:44.763Z,10.45
2023-04-26T10:38:31.845Z,10.85
2023-04-26T10:41:37.078Z,11.93
2023-04-26T10:44:52.797Z,11.25
2023-04-26T10:47:34.045Z,9.30
2023-04-26T10:50:20.800Z,9.30
2023-04-26T10:53:13.925Z,9.18
2023-04-26T10:56:00.788Z,10.43
2023-04-26T10:58:36.018Z,9.85
2023-04-26T11:01:27.857Z,10.88
2023-04-26T11:04:03.988Z,9.80
2023-04-26T11:07:09.798Z,10.77
2023-04-26T11:09:42.922Z,11.27
2023-04-26T11:12:29.801Z,10.50
2023-04-26T11:15:07.286Z,9.63
2023-04-26T11:17:53.861Z,9.68
2023-04-26T11:20:26.902Z,10.88
2023-04-26T11:23:15.820Z,9.48
2023-04-26T11:25:48.968Z,9.82
2023-04-26T11:28:36.818Z,11.35
2023-04-26T11:31:13.847Z,10.18
2023-04-26T11:34:00.804Z,10.77
2023-04-26T11:36:40.830Z,10.35
2023-04-26T11:39:34.812Z,10.63
2023-04-26T11:42:28.817Z,11.07
2023-04-26T11:45:22.820Z,10.70
2023-04-26T11:48:14.871Z,11.15
2023-04-26T11:50:47.904Z,10.98
2023-04-26T11:53:47.816Z,11.10
2023-04-26T11:56:29.827Z,10.65
2023-04-26T11:59:17.820Z,10.93
2023-04-26T12:01:58.009Z,10.75
2023-04-26T12:04:48.211Z,10.75
2023-04-26T12:07:24.907Z,11.57
2023-04-26T12:10:22.829Z,12.25
2023-04-26T12:12:58.046Z,10.68
2023-04-26T12:15:45.879Z,11.10
2023-04-26T12:18:19.021Z,10.82
2023-04-26T12:21:06.843Z,10.48
2023-04-26T12:23:49.838Z,12.63
2023-04-26T12:26:51.854Z,10.27
2023-04-26T12:29:25.047Z,11.45
2023-04-26T12:32:11.865Z,11.25
2023-04-26T12:34:44.945Z,11.93
2023-04-26T12:37:31.843Z,10.80
2023-04-26T12:40:12.857Z,11.00
2023-04-26T12:43:06.841Z,13.60
2023-04-26T12:45:53.878Z,12.13
2023-04-26T12:48:26.984Z,12.55
2023-04-26T12:51:13.845Z,12.65
2023-04-26T12:53:53.855Z,12.00
2023-04-26T12:56:40.873Z,10.80
2023-04-26T12:59:14.047Z,12.00
2023-04-26T13:02:00.928Z,10.48
2023-04-26T13:04:41.852Z,11.68
2023-04-26T13:07:35.866Z,13.13
2023-04-26T13:10:22.871Z,12.30
2023-04-26T13:12:57.864Z,10.20
2023-04-26T13:15:44.901Z,11.25
2023-04-26T13:18:24.903Z,12.77
2023-04-26T13:21:11.888Z,11.20
2023-04-26T13:23:46.299Z,11.60
2023-04-26T13:26:32.866Z,11.75
2023-04-26T13:29:06.031Z,11.95
2023-04-26T13:31:52.957Z,11.70
2023-04-26T13:34:26.039Z,10.90
2023-04-26T13:37:12.855Z,10.52
2023-04-26T13:39:52.884Z,10.48
2023-04-26T13:42:46.846Z,11.10
2023-04-26T13:45:40.876Z,11.15
2023-04-26T13:48:27.873Z,10.55
2023-04-26T13:51:00.945Z,12.10
2023-04-26T13:53:47.892Z,11.23
2023-04-26T13:56:20.963Z,10.35
2023-04-26T13:59:09.873Z,11.15
2023-04-26T14:01:50.778Z,12.07
2023-04-26T14:04:40.009Z,11.93
2023-04-26T14:07:20.899Z,10.00
2023-04-26T14:10:07.986Z,11.32
2023-04-26T14:12:41.426Z,11.32
2023-04-26T14:15:27.876Z,11.15
2023-04-26T14:18:01.088Z,10.07
2023-04-26T14:20:48.130Z,10.60
2023-04-26T14:23:21.147Z,10.30
2023-04-26T14:26:07.893Z,9.45
2023-04-26T14:28:47.901Z,11.05
2023-04-26T14:31:36.919Z,9.45
2023-04-26T14:34:10.064Z,9.98
2023-04-26T14:36:56.868Z,9.23
2023-04-26T14:39:36.888Z,9.85
2023-04-26T14:42:30.885Z,10.70
2023-04-26T14:45:23.656Z,11.43
2023-04-26T14:48:01.811Z,9.73
2023-04-26T14:50:48.910Z,11.63
2023-04-26T14:53:21.998Z,10.55
2023-04-26T14:56:11.757Z,10.13
2023-04-26T14:58:45.093Z,9.40
2023-04-26T15:01:31.980Z,11.85
2023-04-26T15:04:12.112Z,10.02
2023-04-26T15:06:58.920Z,10.45
2023-04-26T15:09:32.267Z,9.82
2023-04-26T15:12:18.921Z,10.57
2023-04-26T15:14:51.997Z,11.13
2023-04-26T15:17:39.950Z,11.18
2023-04-26T15:20:13.005Z,10.93
2023-04-26T15:22:59.965Z,10.82
2023-04-26T15:25:33.035Z,11.93
2023-04-26T15:28:19.898Z,10.90
2023-04-26T15:30:53.049Z,11.30
2023-04-26T15:33:39.899Z,11.15
2023-04-26T15:36:21.013Z,10.43
2023-04-26T15:39:07.951Z,10.82
2023-04-26T15:41:41.093Z,11.70
2023-04-26T15:44:27.926Z,10.90
2023-04-26T15:47:07.899Z,11.80
2023-04-26T15:50:01.948Z,11.30
2023-04-26T15:52:55.901Z,12.82
2023-04-26T15:55:42.944Z,10.65
2023-04-26T15:58:16.103Z,11.15
2023-04-26T16:01:02.982Z,11.25
2023-04-26T16:03:36.225Z,11.10
2023-04-26T16:06:22.925Z,12.10
2023-04-26T16:09:04.703Z,10.60
2023-04-26T16:11:54.924Z,10.25
2023-04-26T16:14:28.186Z,10.18
2023-04-26T16:17:14.931Z,11.77
2023-04-26T16:19:48.561Z,12.10
2023-04-26T16:22:34.938Z,11.75
2023-04-26T16:25:10.024Z,10.93
2023-04-26T16:27:56.914Z,10.57
2023-04-26T16:30:36.938Z,12.80
2023-04-26T16:33:30.934Z,10.90
2023-04-26T16:36:17.930Z,10.10
2023-04-26T16:38:51.024Z,11.88
2023-04-26T16:41:44.950Z,11.93
2023-04-26T16:44:38.952Z,11.55
2023-04-26T16:47:25.922Z,13.35
2023-04-26T16:49:59.082Z,12.93
2023-04-26T16:52:45.947Z,14.27
2023-04-26T16:55:19.053Z,13.32
2023-04-26T16:58:05.935Z,13.65
2023-04-26T17:00:39.080Z,15.52
2023-04-26T17:03:26.279Z,16.55
2023-04-26T17:06:00.201Z,17.17
2023-04-26T17:08:46.956Z,13.13
2023-04-26T17:11:30.930Z,13.27
2023-04-26T17:14:17.953Z,12.45
2023-04-26T17:16:51.205Z,12.10
2023-04-26T17:19:37.940Z,13.20
2023-04-26T17:22:11.360Z,11.93
2023-04-26T17:24:57.951Z,12.57
2023-04-26T17:27:37.971Z,12.98
2023-04-26T17:30:25.989Z,11.68
2023-04-26T17:32:59.110Z,12.73
2023-04-26T17:35:45.973Z,11.63
2023-04-26T17:38:25.956Z,13.75
2023-04-26T17:41:19.988Z,13.82
2023-04-26T17:44:13.947Z,15.02
2023-04-26T17:47:00.955Z,13.70
2023-04-26T17:49:40.966Z,16.40
2023-04-26T17:52:34.987Z,17.27
2023-04-26T17:55:28.980Z,15.48
2023-04-26T17:58:15.935Z,12.57
2023-04-26T18:00:49.077Z,13.55
2023-04-26T18:03:37.031Z,12.45
2023-04-26T18:06:11.067Z,11.70
2023-04-26T18:08:57.979Z,11.93
2023-04-26T18:11:31.070Z,12.25
2023-04-26T18:14:17.967Z,11.65
2023-04-26T18:16:58.018Z,11.65
2023-04-26T18:19:51.985Z,12.30
2023-04-26T18:22:38.985Z,10.70
2023-04-26T18:25:19.985Z,12.20
2023-04-26T18:28:14.987Z,11.30
2023-04-26T18:31:15.030Z,12.70
2023-04-26T18:34:01.979Z,10.32
2023-04-26T18:36:42.981Z,14.25
2023-04-26T18:39:36.975Z,11.55
2023-04-26T18:42:24.048Z,11.15
2023-04-26T18:44:57.095Z,12.13
2023-04-26T18:47:44.066Z,11.30
2023-04-26T18:50:17.082Z,11.98
2023-04-26T18:53:04.153Z,10.65
2023-04-26T18:55:37.080Z,10.55
2023-04-26T18:58:23.995Z,11.68
2023-04-26T19:00:57.375Z,10.88
2023-04-26T19:03:44.155Z,10.98
2023-04-26T19:06:18.144Z,11.23
2023-04-26T19:09:06.000Z,12.38
2023-04-26T19:11:46.008Z,11.98
2023-04-26T19:14:33.017Z,12.85
2023-04-26T19:17:06.565Z,12.68
2023-04-26T19:19:53.001Z,12.98
2023-04-26T19:22:33.023Z,12.75
2023-04-26T19:25:28.992Z,12.98
2023-04-26T19:28:15.995Z,15.27
2023-04-26T19:30:49.134Z,15.93
2023-04-26T19:33:35.999Z,16.73
2023-04-26T19:36:09.091Z,17.13
2023-04-26T19:38:56.006Z,16.98
2023-04-26T19:41:32.115Z,17.98
2023-04-26T19:44:19.018Z,17.35
2023-04-26T19:46:53.157Z,15.93
2023-04-26T19:49:41.005Z,17.33
2023-04-26T19:52:14.127Z,19.90
2023-04-26T19:55:00.993Z,27.08
2023-04-26T19:57:34.622Z,29.25
2023-04-26T20:00:22.029Z,27.60
2023-04-26T20:02:58.970Z,29.02
2023-04-26T20:05:46.026Z,21.85
2023-04-26T20:08:19.233Z,14.88
2023-04-26T20:11:12.030Z,14.57
2023-04-26T20:13:45.182Z,15.43
2023-04-26T20:16:32.116Z,14.82
2023-04-26T20:19:05.499Z,14.50
2023-04-26T20:21:52.022Z,14.55
2023-04-26T20:24:34.016Z,14.55
2023-04-26T20:27:28.028Z,13.57
2023-04-26T20:30:22.038Z,14.55
2023-04-26T20:33:09.114Z,13.68
2023-04-26T20:35:42.230Z,14.60
2023-04-26T20:38:30.030Z,15.93
2023-04-26T20:41:04.563Z,14.63
2023-04-26T20:44:11.619Z,14.20
2023-04-26T20:46:58.610Z,15.10
2023-04-26T20:49:31.726Z,13.77
2023-04-26T20:52:19.682Z,12.50
2023-04-26T20:54:52.806Z,12.77
2023-04-26T20:57:39.596Z,14.18
2023-04-26T21:00:13.739Z,14.05
2023-04-26T21:03:00.746Z,15.48
2023-04-26T21:05:33.965Z,16.50
2023-04-26T21:08:23.951Z,18.05
2023-04-26T21:11:03.630Z,17.70
2023-04-26T21:13:57.662Z,16.08
2023-04-26T21:16:44.606Z,15.48
2023-04-26T21:19:17.728Z,13.90
2023-04-26T21:22:04.627Z,13.95
2023-04-26T21:24:44.633Z,18.40
2023-04-26T21:27:31.649Z,15.77
2023-04-26T21:30:13.946Z,16.05
2023-04-26T21:33:00.667Z,14.88
2023-04-26T21:35:33.729Z,15.65
2023-04-26T21:38:20.650Z,15.85
2023-04-26T21:41:00.643Z,17.25
2023-04-26T21:43:54.668Z,16.55
2023-04-26T21:46:48.714Z,15.20
2023-04-26T21:49:35.641Z,17.42
2023-04-26T21:52:08.728Z,20.83
2023-04-26T21:54:55.628Z,19.20
2023-04-26T21:57:35.702Z,16.63
2023-04-26T22:00:29.659Z,17.60
2023-04-26T22:03:23.817Z,17.55
2023-04-26T22:06:18.694Z,16.90
2023-04-26T22:09:15.708Z,16.27
2023-04-26T22:12:09.645Z,16.77
2023-04-26T22:14:56.638Z,18.75
2023-04-26T22:17:29.964Z,17.92
2023-04-26T22:20:17.681Z,18.05
2023-04-26T22:22:57.657Z,16.10
2023-04-26T22:25:51.683Z,16.23
2023-04-26T22:28:38.641Z,16.30
2023-04-26T22:31:11.757Z,16.63
2023-04-26T22:33:58.651Z,16.20
2023-04-26T22:36:32.600Z,16.50
2023-04-26T22:39:20.658Z,15.00
2023-04-26T22:41:53.781Z,14.25
2023-04-26T22:44:40.655Z,15.00
2023-04-26T22:47:13.808Z,15.60
2023-04-26T22:50:00.690Z,16.95
2023-04-26T22:52:33.793Z,16.33
2023-04-26T22:55:20.674Z,15.65
2023-04-26T22:57:53.787Z,16.55
2023-04-26T23:00:40.641Z,16.60
2023-04-26T23:03:13.916Z,16.30
2023-04-26T23:06:00.643Z,16.63
2023-04-26T23:08:40.686Z,16.65
2023-04-26T23:11:27.716Z,15.40
2023-04-26T23:14:01.897Z,15.88
2023-04-26T23:16:48.753Z,14.38
2023-04-26T23:19:22.144Z,15.55
2023-04-26T23:22:08.682Z,14.63
2023-04-26T23:24:41.766Z,14.52
2023-04-26T23:27:28.682Z,15.60
2023-04-26T23:30:01.812Z,14.20
2023-04-26T23:32:48.694Z,15.25
2023-04-26T23:35:28.687Z,15.55
2023-04-26T23:38:22.698Z,14.95
2023-04-26T23:41:09.682Z,16.15
2023-04-26T23:43:42.775Z,14.88
2023-04-26T23:46:29.770Z,15.13
2023-04-26T23:49:02.805Z,16.63
2023-04-26T23:51:49.700Z,15.88
2023-04-26T23:54:22.850Z,16.25
2023-04-26T23:57:10.681Z,16.05
2023-04-26T23:59:50.671Z,16.17
